Time;durP1;ratioP1;P1;durP2;ratioP2;P2;SDS_P1;SDS_P2;PMS_P1;PMS_P2;Temp;Humidity;BMP_temperature;BMP_pressure;BME280_temperature;BME280_humidity;BME280_pressure;Samples;Min_cycle;Max_cycle;Signal;HPM_P1;HPM_P2
2023/05/17 18:57:38;;;;;;;6.40;1.80;;;11.20;94.00;;;;;;5594431;23;20459;-94
2023/05/17 19:00:06;;;;;;;6.57;1.70;;;11.10;93.80;;;;;;4941750;29;20231;-94
2023/05/17 19:02:33;;;;;;;3.97;1.37;;;11.00;96.90;;;;;;4952395;29;20213;-96
2023/05/17 19:05:00;;;;;;;7.60;1.87;;;10.90;94.30;;;;;;4968216;29;20288;-96
2023/05/17 19:07:27;;;;;;;8.13;2.13;;;10.80;95.40;;;;;;4949128;29;20240;-96
2023/05/17 19:09:54;;;;;;;7.03;1.80;;;10.70;96.90;;;;;;4941896;29;20296;-95
2023/05/17 19:12:21;;;;;;;5.43;1.70;;;10.60;99.90;;;;;;5373028;23;20281;-96
2023/05/17 19:17:24;;;;;;;6.00;1.70;;;10.40;99.90;;;;;;4991689;23;20221;-96
2023/05/17 19:19:51;;;;;;;5.93;1.83;;;10.30;99.90;;;;;;4952553;28;20189;-96
2023/05/17 19:22:18;;;;;;;4.40;1.30;;;10.20;99.90;;;;;;5716530;23;20222;-96
2023/05/17 19:24:45;;;;;;;7.23;1.77;;;10.10;99.90;;;;;;5082243;23;20221;-96
2023/05/17 19:27:15;;;;;;;4.63;1.50;;;10.00;99.90;;;;;;4971985;23;20248;-94
2023/05/17 19:29:42;;;;;;;5.67;1.80;;;10.00;99.90;;;;;;4932988;29;20201;-96
2023/05/17 19:32:09;;;;;;;6.63;1.67;;;9.90;99.90;;;;;;4936677;29;20227;-96
2023/05/17 19:34:37;;;;;;;10.83;2.37;;;9.90;99.90;;;;;;4939239;29;20753;-96
2023/05/17 19:37:05;;;;;;;4.67;2.03;;;9.80;99.90;;;;;;4945785;29;20208;-96
2023/05/17 19:39:32;;;;;;;5.37;2.10;;;9.80;99.90;;;;;;4944985;29;20228;-96
2023/05/17 19:41:59;;;;;;;8.37;2.20;;;9.70;99.90;;;;;;4934775;29;20233;-96
2023/05/17 19:44:26;;;;;;;9.33;2.17;;;9.70;99.90;;;;;;4959079;29;20196;-95
2023/05/17 19:46:53;;;;;;;6.50;2.23;;;9.70;99.90;;;;;;4956286;29;20230;-96
2023/05/17 19:52:05;;;;;;;4.10;1.60;;;9.60;99.90;;;;;;5016010;23;20218;-96
2023/05/17 19:54:35;;;;;;;7.07;1.60;;;9.60;99.90;;;;;;4981924;28;20209;-96
2023/05/17 19:57:04;;;;;;;5.07;1.50;;;9.60;99.90;;;;;;4987135;28;20210;-96
2023/05/17 20:02:05;;;;;;;5.43;1.60;;;9.60;99.90;;;;;;4955787;29;20216;-96
2023/05/17 20:04:32;;;;;;;10.10;1.90;;;9.60;99.90;;;;;;4939883;29;20675;-96
2023/05/17 20:07:03;;;;;;;7.33;1.80;;;9.60;99.90;;;;;;4952759;29;20235;-96
2023/05/17 20:09:35;;;;;;;6.77;1.70;;;9.60;99.90;;;;;;4959364;29;20223;-96
2023/05/17 20:12:03;;;;;;;3.67;1.57;;;9.50;99.90;;;;;;5028547;23;20232;-96
2023/05/17 20:14:30;;;;;;;7.77;1.67;;;9.50;99.90;;;;;;5085345;23;20240;-96
2023/05/17 20:17:00;;;;;;;5.00;1.83;;;9.50;99.90;;;;;;4979528;28;20199;-96
2023/05/17 20:19:27;;;;;;;11.47;1.70;;;9.40;99.90;;;;;;4989670;23;20231;-96
2023/05/17 20:21:57;;;;;;;6.27;1.83;;;9.40;99.90;;;;;;4978865;29;20613;-96
2023/05/17 20:24:28;;;;;;;7.20;1.53;;;9.40;99.90;;;;;;5034702;23;20227;-96
2023/05/17 20:26:57;;;;;;;7.30;1.83;;;9.40;99.90;;;;;;4976055;29;20226;-96
2023/05/17 20:29:24;;;;;;;5.60;1.57;;;9.40;99.90;;;;;;4970971;29;20224;-96
2023/05/17 20:31:53;;;;;;;6.00;1.43;;;9.40;99.90;;;;;;4964103;29;20203;-96
2023/05/17 20:34:27;;;;;;;6.07;1.40;;;9.30;99.90;;;;;;4954118;29;20224;-95
2023/05/17 20:36:55;;;;;;;5.97;1.83;;;9.40;99.90;;;;;;4958816;29;20203;-96
2023/05/17 20:39:22;;;;;;;4.70;1.63;;;9.40;99.90;;;;;;4957588;29;20271;-96
2023/05/17 20:41:50;;;;;;;10.27;1.70;;;9.40;99.90;;;;;;4958238;29;20204;-96
2023/05/17 20:44:22;;;;;;;8.17;1.67;;;9.40;99.90;;;;;;4963985;29;20232;-96
2023/05/17 20:46:50;;;;;;;3.97;1.60;;;9.40;99.90;;;;;;4965178;28;20680;-96
2023/05/17 20:49:18;;;;;;;5.97;1.47;;;9.40;99.90;;;;;;4959030;29;20673;-95
2023/05/17 20:51:48;;;;;;;5.20;1.43;;;9.40;1.00;;;;;;4959223;29;20307;-96
2023/05/17 20:54:15;;;;;;;6.17;1.50;;;9.40;1.00;;;;;;4952298;29;20206;-95
2023/05/17 20:56:42;;;;;;;6.43;1.67;;;9.50;1.00;;;;;;4954919;29;20191;-95
2023/05/17 20:59:10;;;;;;;4.83;1.60;;;9.50;1.00;;;;;;4967091;29;20215;-96
2023/05/17 21:01:37;;;;;;;3.97;1.80;;;9.50;1.00;;;;;;4965563;29;20212;-96
2023/05/17 21:04:04;;;;;;;6.50;1.77;;;9.50;1.00;;;;;;4957850;29;20629;-96
2023/05/17 21:06:31;;;;;;;5.83;1.60;;;9.50;1.00;;;;;;4951462;29;20759;-95
2023/05/17 21:09:00;;;;;;;6.93;1.80;;;9.60;1.00;;;;;;4951043;29;20298;-96
2023/05/17 21:11:28;;;;;;;4.37;1.60;;;9.60;1.00;;;;;;4941088;29;20659;-95
2023/05/17 21:13:56;;;;;;;6.20;1.90;;;9.60;1.00;;;;;;4947448;29;20208;-95
2023/05/17 21:16:24;;;;;;;6.73;2.00;;;9.70;1.00;;;;;;4945693;29;20203;-96
2023/05/17 21:18:51;;;;;;;4.33;1.77;;;9.80;1.00;;;;;;4947082;29;20223;-94
2023/05/17 21:21:19;;;;;;;4.50;1.70;;;9.70;1.00;;;;;;4946192;29;20238;-95
2023/05/17 21:23:46;;;;;;;8.57;1.50;;;9.80;1.00;;;;;;4950026;28;20230;-96
2023/05/17 21:26:14;;;;;;;5.13;1.47;;;9.80;1.00;;;;;;4952688;29;20852;-95
2023/05/17 21:28:41;;;;;;;7.67;1.73;;;9.70;1.00;;;;;;4949493;29;20208;-96
2023/05/17 21:31:08;;;;;;;11.97;1.90;;;9.70;1.00;;;;;;4957132;29;20234;-96
2023/05/17 21:33:36;;;;;;;6.67;1.53;;;9.70;1.00;;;;;;4947815;29;20303;-95
2023/05/17 21:36:03;;;;;;;3.63;1.63;;;9.70;1.00;;;;;;4941359;29;20631;-95
2023/05/17 21:38:30;;;;;;;5.30;1.53;;;9.70;1.00;;;;;;4944840;29;20622;-95
2023/05/17 21:40:57;;;;;;;6.40;1.63;;;9.80;1.00;;;;;;4957175;29;20202;-95
2023/05/17 21:43:24;;;;;;;6.43;1.60;;;9.70;1.00;;;;;;4942264;29;20286;-95
2023/05/17 21:45:51;;;;;;;4.53;1.70;;;9.70;1.00;;;;;;4945870;29;20224;-96
2023/05/17 21:48:18;;;;;;;8.90;1.93;;;9.70;1.00;;;;;;4944385;29;20205;-96
2023/05/17 21:50:48;;;;;;;7.03;1.73;;;9.70;1.00;;;;;;4951537;29;20266;-96
2023/05/17 21:53:15;;;;;;;6.20;1.90;;;9.80;1.00;;;;;;4953885;29;20226;-96
2023/05/17 21:55:42;;;;;;;6.13;1.77;;;9.70;1.00;;;;;;4955061;29;20289;-96
2023/05/17 21:58:09;;;;;;;5.83;1.87;;;9.70;1.00;;;;;;4947676;29;20268;-96
2023/05/17 22:00:36;;;;;;;5.00;1.80;;;9.70;1.00;;;;;;4958672;29;20216;-96
2023/05/17 22:03:03;;;;;;;5.57;1.90;;;9.70;1.00;;;;;;4954066;29;20274;-96
2023/05/17 22:05:30;;;;;;;5.60;2.03;;;9.70;1.00;;;;;;4951354;29;20288;-95
2023/05/17 22:08:01;;;;;;;6.43;1.90;;;9.70;1.00;;;;;;4947983;29;20211;-96
2023/05/17 22:10:29;;;;;;;6.07;2.10;;;9.70;1.00;;;;;;4950639;29;20233;-96
2023/05/17 22:12:56;;;;;;;4.67;1.73;;;9.70;1.00;;;;;;4950508;29;20217;-96
2023/05/17 22:15:24;;;;;;;7.40;2.00;;;9.70;1.00;;;;;;4950374;29;20207;-96
2023/05/17 22:17:51;;;;;;;5.73;1.80;;;9.70;1.00;;;;;;4947977;29;20228;-96
2023/05/17 22:20:21;;;;;;;5.40;2.30;;;9.60;1.00;;;;;;4951648;29;20221;-95
2023/05/17 22:22:48;;;;;;;7.70;2.30;;;9.60;1.00;;;;;;4948748;29;20192;-95
2023/05/17 22:25:17;;;;;;;6.80;2.07;;;9.60;1.00;;;;;;4947903;29;20339;-96
2023/05/17 22:27:44;;;;;;;4.60;2.00;;;9.50;1.00;;;;;;4955484;29;20204;-96
2023/05/17 22:30:12;;;;;;;4.17;2.40;;;9.50;1.00;;;;;;4955210;29;20208;-96
2023/05/17 22:32:39;;;;;;;8.17;2.70;;;9.50;1.00;;;;;;4940373;29;20232;-95
2023/05/17 22:35:07;;;;;;;6.37;2.67;;;9.40;1.00;;;;;;4939434;29;20208;-96
2023/05/17 22:37:34;;;;;;;8.87;2.97;;;9.40;1.00;;;;;;4940265;29;20196;-96
2023/05/17 22:40:01;;;;;;;7.93;2.93;;;9.50;1.00;;;;;;4949722;29;20205;-95
2023/05/17 22:42:29;;;;;;;9.73;3.30;;;9.50;1.00;;;;;;4949160;29;20211;-95
2023/05/17 22:44:56;;;;;;;8.20;2.97;;;9.60;1.00;;;;;;4931830;29;20207;-95
2023/05/17 22:47:25;;;;;;;7.47;3.10;;;9.60;1.00;;;;;;4957084;29;20291;-95
2023/05/17 22:49:52;;;;;;;10.00;3.10;;;9.70;1.00;;;;;;4957598;29;20208;-95
2023/05/17 22:52:19;;;;;;;8.50;2.83;;;9.80;1.00;;;;;;4940622;29;20235;-95
2023/05/17 22:54:46;;;;;;;8.27;2.97;;;9.80;1.00;;;;;;4938396;29;20204;-95
2023/05/17 22:57:13;;;;;;;8.97;3.00;;;9.80;1.00;;;;;;4947440;29;20290;-95
2023/05/17 22:59:42;;;;;;;8.37;3.40;;;9.90;1.00;;;;;;4942687;29;20280;-95
2023/05/17 23:02:10;;;;;;;10.33;3.07;;;9.90;1.00;;;;;;4944402;29;20264;-95
2023/05/17 23:04:38;;;;;;;7.60;2.90;;;10.00;1.00;;;;;;4949347;29;20715;-95
2023/05/17 23:07:08;;;;;;;10.33;3.30;;;10.00;1.00;;;;;;4942793;29;20232;-96
2023/05/17 23:09:36;;;;;;;10.93;5.57;;;10.00;1.00;;;;;;4945708;28;20203;-96
2023/05/17 23:12:05;;;;;;;15.33;3.20;;;9.90;1.00;;;;;;4945129;29;20200;-95
2023/05/17 23:14:32;;;;;;;5.00;2.30;;;9.90;1.00;;;;;;4943338;29;20210;-95
2023/05/17 23:17:02;;;;;;;9.40;3.03;;;9.90;1.00;;;;;;4944284;29;20200;-95
2023/05/17 23:19:29;;;;;;;7.17;3.10;;;9.80;1.00;;;;;;4950624;29;20204;-95
2023/05/17 23:21:56;;;;;;;10.60;2.70;;;9.80;4.80;;;;;;4936523;29;20207;-95
2023/05/17 23:24:24;;;;;;;8.57;2.80;;;9.70;69.20;;;;;;4937204;29;20239;-95
2023/05/17 23:26:51;;;;;;;6.57;2.70;;;9.70;74.10;;;;;;4950679;29;20256;-95
2023/05/17 23:29:18;;;;;;;7.47;2.77;;;9.70;99.90;;;;;;4938763;29;20211;-94
2023/05/17 23:31:46;;;;;;;9.37;2.90;;;9.80;99.90;;;;;;4950077;29;20234;-95
2023/05/17 23:34:15;;;;;;;7.53;3.17;;;9.80;99.90;;;;;;4937170;29;20746;-95
2023/05/17 23:36:41;;;;;;;8.63;2.67;;;9.80;40.20;;;;;;4937024;29;20571;-94
2023/05/17 23:39:08;;;;;;;10.53;2.90;;;9.80;6.10;;;;;;4937316;29;20238;-96
2023/05/17 23:41:36;;;;;;;9.67;3.17;;;9.90;1.00;;;;;;4937080;29;20211;-96
2023/05/17 23:44:03;;;;;;;8.43;2.97;;;9.90;1.00;;;;;;4937625;29;20204;-94
2023/05/17 23:46:30;;;;;;;8.53;2.87;;;9.90;1.00;;;;;;4936738;29;20671;-95
2023/05/17 23:48:57;;;;;;;7.17;2.80;;;9.90;1.00;;;;;;4941104;29;20273;-96
2023/05/17 23:51:25;;;;;;;8.47;2.40;;;10.00;1.00;;;;;;4936835;29;20288;-95
2023/05/17 23:53:52;;;;;;;8.07;2.47;;;10.00;1.00;;;;;;4942550;29;20206;-96
2023/05/17 23:56:19;;;;;;;12.33;3.20;;;10.00;1.00;;;;;;4942438;29;20205;-94
2023/05/17 23:58:46;;;;;;;6.37;2.70;;;10.00;1.00;;;;;;4945650;29;20761;-95
